Time;durP1;ratioP1;P1;durP2;ratioP2;P2;SDS_P1;SDS_P2;PMS_P1;PMS_P2;Temp;Humidity;BMP_temperature;BMP_pressure;BME280_temperature;BME280_humidity;BME280_pressure;Samples;Min_cycle;Max_cycle;Signal;HPM_P1;HPM_P2
2021/12/24 00:00:13;;;;;;;2.20;1.40;;;;;;;8.38;72.97;95001.88;5074396;28;20201;-79
2021/12/24 00:02:40;;;;;;;2.07;1.50;;;;;;;8.35;73.35;94997.91;5073307;28;20201;-78
2021/12/24 00:05:08;;;;;;;3.03;1.50;;;;;;;8.34;73.13;94995.50;5073744;28;20239;-78
2021/12/24 00:07:35;;;;;;;1.70;1.40;;;;;;;8.38;73.18;94989.06;5073538;28;20231;-81
2021/12/24 00:10:01;;;;;;;3.90;1.80;;;;;;;8.35;73.42;94991.97;5074848;28;20822;-81
2021/12/24 00:12:32;;;;;;;1.70;1.50;;;;;;;8.31;73.57;94989.72;5074224;28;20208;-81
2021/12/24 00:15:03;;;;;;;1.60;1.37;;;;;;;8.27;73.90;94987.72;5073801;28;20320;-81
2021/12/24 00:17:34;;;;;;;1.50;1.40;;;;;;;8.28;73.85;94989.28;5072650;28;20278;-81
2021/12/24 00:20:21;;;;;;;2.83;1.60;;;;;;;8.27;73.79;94990.28;5074289;28;20261;-79
2021/12/24 00:23:19;;;;;;;1.93;1.40;;;;;;;8.24;74.35;94982.94;5054175;28;20197;-79
2021/12/24 00:36:42;;;;;;;1.40;1.30;;;;;;;8.08;76.41;94971.06;5073162;28;20281;-79
2021/12/24 00:39:09;;;;;;;1.50;1.40;;;;;;;8.10;76.23;94968.31;5074991;28;20315;-78
2021/12/24 00:41:35;;;;;;;2.70;1.70;;;;;;;8.09;76.81;94962.41;5073495;28;20189;-78
2021/12/24 00:44:01;;;;;;;2.50;1.53;;;;;;;8.10;77.04;94965.75;5073412;28;20603;-79
2021/12/24 00:46:28;;;;;;;1.50;1.40;;;;;;;8.11;76.60;94957.09;5073614;28;20243;-78
2021/12/24 00:48:56;;;;;;;1.50;1.40;;;;;;;8.08;77.22;94945.41;5073475;28;20216;-78
2021/12/24 00:51:31;;;;;;;2.80;1.50;;;;;;;8.11;77.41;94944.28;5073709;28;20203;-78
2021/12/24 00:56:43;;;;;;;1.50;1.40;;;;;;;8.07;77.85;94945.63;5060547;28;20270;-78
2021/12/24 00:59:09;;;;;;;2.23;1.40;;;;;;;8.09;77.70;94941.88;5072925;28;20227;-78
2021/12/24 01:01:36;;;;;;;1.97;1.63;;;;;;;8.08;78.08;94947.22;5073031;28;20188;-78
2021/12/24 01:04:02;;;;;;;1.57;1.47;;;;;;;8.10;77.90;94953.72;5076239;28;20221;-79
2021/12/24 01:06:28;;;;;;;1.40;1.30;;;;;;;8.11;77.95;94951.97;5075530;28;20705;-79
2021/12/24 01:08:55;;;;;;;2.90;1.50;;;;;;;8.15;77.38;94948.88;5076200;28;20197;-78
2021/12/24 01:11:23;;;;;;;3.03;1.70;;;;;;;8.14;78.01;94933.69;5077278;28;20196;-78
2021/12/24 01:13:49;;;;;;;1.70;1.53;;;;;;;8.15;78.10;94945.53;5075939;28;20225;-78
2021/12/24 01:16:23;;;;;;;1.77;1.40;;;;;;;8.18;77.87;94934.91;5075518;28;20221;-79
2021/12/24 01:18:58;;;;;;;1.40;1.30;;;;;;;8.23;77.58;94930.06;5076479;28;20256;-78
2021/12/24 01:21:38;;;;;;;2.90;1.63;;;;;;;8.25;77.60;94936.59;5076699;28;20683;-78
2021/12/24 01:24:10;;;;;;;2.70;1.40;;;;;;;8.27;77.21;94936.44;5075874;28;20221;-78
2021/12/24 01:26:44;;;;;;;1.70;1.60;;;;;;;8.27;77.41;94933.88;5075489;28;20224;-78
2021/12/24 01:29:41;;;;;;;1.83;1.37;;;;;;;8.28;77.52;94931.09;5075881;28;20227;-78
2021/12/24 01:37:56;;;;;;;2.87;1.60;;;;;;;8.42;77.09;94928.75;5054766;28;20235;-78
2021/12/24 01:40:38;;;;;;;3.33;1.73;;;;;;;8.46;77.09;94937.69;5059559;28;20264;-79
2021/12/24 01:43:05;;;;;;;2.37;1.40;;;;;;;8.46;77.11;94935.91;5076476;28;20209;-78
2021/12/24 01:45:35;;;;;;;1.50;1.40;;;;;;;8.44;77.13;94935.28;5075801;28;20243;-79
2021/12/24 01:48:05;;;;;;;1.60;1.50;;;;;;;8.47;77.05;94927.22;5055711;28;20229;-80
2021/12/24 01:50:34;;;;;;;1.70;1.53;;;;;;;8.50;76.75;94931.19;5055772;28;20200;-79
2021/12/24 01:53:01;;;;;;;2.50;1.60;;;;;;;8.56;76.57;94923.59;5055352;28;20201;-78
2021/12/24 01:55:28;;;;;;;3.73;1.50;;;;;;;8.59;76.27;94925.00;5054024;28;20229;-78
2021/12/24 01:57:55;;;;;;;1.80;1.30;;;;;;;8.55;76.28;94918.63;5053926;28;20233;-78
2021/12/24 02:00:28;;;;;;;1.50;1.33;;;;;;;8.59;76.49;94923.22;5055349;28;20205;-78
2021/12/24 02:02:57;;;;;;;1.80;1.40;;;;;;;8.63;76.15;94906.50;5055445;28;20209;-79
2021/12/24 02:05:24;;;;;;;1.97;1.50;;;;;;;8.60;76.34;94906.06;5054117;28;20213;-79
2021/12/24 02:07:51;;;;;;;2.37;1.60;;;;;;;8.59;76.58;94895.00;5037728;28;20213;-78
2021/12/24 02:10:19;;;;;;;1.73;1.40;;;;;;;8.63;76.36;94900.56;5054975;28;20201;-77
2021/12/24 02:12:46;;;;;;;2.57;1.70;;;;;;;8.65;76.08;94890.94;5054425;28;20198;-78
2021/12/24 02:15:22;;;;;;;1.70;1.60;;;;;;;8.68;76.07;94884.59;5054125;28;20221;-78
2021/12/24 02:18:36;;;;;;;1.87;1.50;;;;;;;8.74;75.97;94883.91;5054229;28;20237;-78
2021/12/24 02:29:27;;;;;;;1.57;1.27;;;;;;;8.85;75.39;94868.78;5074718;28;20207;-79
2021/12/24 02:31:54;;;;;;;1.70;1.47;;;;;;;8.85;75.21;94865.47;5075227;28;20197;-79
2021/12/24 02:34:20;;;;;;;1.60;1.50;;;;;;;8.85;75.17;94868.03;5074972;28;20233;-79
2021/12/24 02:36:48;;;;;;;3.47;1.47;;;;;;;8.89;75.27;94851.25;5073821;28;20572;-79
2021/12/24 02:39:16;;;;;;;1.40;1.30;;;;;;;8.94;75.12;94844.59;5074233;28;20227;-79
2021/12/24 02:41:42;;;;;;;1.93;1.60;;;;;;;8.92;74.86;94843.19;5074208;28;20208;-79
2021/12/24 02:44:09;;;;;;;1.87;1.40;;;;;;;8.96;74.69;94839.28;5074002;28;20221;-78
2021/12/24 02:46:41;;;;;;;1.37;1.27;;;;;;;9.00;74.19;94837.94;5073150;28;20231;-78
2021/12/24 02:49:13;;;;;;;1.97;1.40;;;;;;;9.03;74.42;94835.00;5074140;28;20240;-79
2021/12/24 02:54:25;;;;;;;1.73;1.57;;;;;;;9.06;73.76;94836.38;5094479;28;20261;-79
2021/12/24 02:56:55;;;;;;;1.30;1.20;;;;;;;9.06;73.85;94820.97;5073982;28;20233;-78
2021/12/24 02:59:25;;;;;;;1.70;1.43;;;;;;;9.09;73.69;94821.41;5073962;28;20231;-79
2021/12/24 03:01:53;;;;;;;1.20;1.10;;;;;;;9.11;73.62;94811.75;5073590;28;20234;-79
2021/12/24 03:04:20;;;;;;;1.40;1.30;;;;;;;9.11;73.88;94803.25;5073380;28;20221;-79
2021/12/24 03:06:48;;;;;;;1.83;1.50;;;;;;;9.10;73.67;94797.31;5053690;28;20226;-79
2021/12/24 03:09:17;;;;;;;2.23;1.30;;;;;;;9.12;73.67;94802.28;5068569;28;20664;-79
2021/12/24 03:11:46;;;;;;;1.60;1.50;;;;;;;9.09;73.51;94806.00;5073575;28;20638;-79
2021/12/24 03:14:15;;;;;;;3.03;1.30;;;;;;;9.13;73.28;94799.53;5069983;28;20219;-79
2021/12/24 03:16:45;;;;;;;3.17;1.47;;;;;;;9.11;73.24;94800.69;5068330;28;20248;-79
2021/12/24 03:19:12;;;;;;;2.43;1.40;;;;;;;9.16;73.28;94798.38;5073635;28;20240;-79
2021/12/24 03:21:48;;;;;;;1.73;1.20;;;;;;;9.15;72.93;94795.00;5073600;28;20193;-79
2021/12/24 03:27:00;;;;;;;1.67;1.20;;;;;;;9.16;72.62;94795.78;5072363;28;20660;-78
2021/12/24 03:29:27;;;;;;;1.17;1.07;;;;;;;9.18;72.35;94809.25;5073424;28;20197;-79
2021/12/24 03:31:53;;;;;;;1.50;1.40;;;;;;;9.18;72.39;94792.06;5075515;28;20197;-78
2021/12/24 03:34:22;;;;;;;2.57;1.43;;;;;;;9.19;72.02;94814.19;5073863;28;20232;-79
2021/12/24 03:36:49;;;;;;;3.20;1.27;;;;;;;9.22;71.96;94795.06;5073953;28;20224;-78
2021/12/24 03:39:16;;;;;;;1.43;1.30;;;;;;;9.20;71.49;94804.72;5074650;28;20220;-78
2021/12/24 03:41:44;;;;;;;1.43;1.30;;;;;;;9.19;71.27;94791.09;5073559;28;20196;-78
2021/12/24 03:44:14;;;;;;;1.80;1.20;;;;;;;9.22;70.97;94793.28;5074043;28;20224;-78
2021/12/24 03:46:51;;;;;;;1.40;1.30;;;;;;;9.22;70.41;94784.78;5071805;28;20788;-77
2021/12/24 03:49:22;;;;;;;1.57;1.40;;;;;;;9.21;70.36;94793.47;5073928;28;20196;-79
2021/12/24 03:51:54;;;;;;;1.73;1.20;;;;;;;9.18;70.19;94784.34;5063024;28;20205;-78
2021/12/24 03:57:05;;;;;;;1.43;1.10;;;;;;;9.19;69.72;94780.00;5061047;28;20246;-78
2021/12/24 03:59:33;;;;;;;1.53;1.23;;;;;;;9.16;69.56;94788.88;5054053;28;20221;-79
2021/12/24 04:02:00;;;;;;;2.47;1.40;;;;;;;9.18;69.31;94781.78;5067990;28;20292;-78
2021/12/24 04:04:29;;;;;;;1.30;1.17;;;;;;;9.17;69.23;94781.97;5068403;28;20217;-79
2021/12/24 04:06:55;;;;;;;1.27;1.13;;;;;;;9.16;68.85;94772.69;5072603;28;20304;-80
2021/12/24 04:09:24;;;;;;;1.53;1.40;;;;;;;9.11;68.19;94775.00;5066695;28;20197;-79
2021/12/24 04:11:51;;;;;;;1.60;1.23;;;;;;;9.11;68.43;94765.53;5055554;28;20296;-79
2021/12/24 04:14:17;;;;;;;1.47;1.10;;;;;;;9.13;68.37;94770.47;5052813;28;20232;-79
2021/12/24 04:16:45;;;;;;;1.53;1.17;;;;;;;9.06;68.36;94765.28;5070833;28;20227;-79
2021/12/24 04:19:25;;;;;;;0.93;0.93;;;;;;;9.04;68.11;94751.88;5073050;28;20224;-78
2021/12/24 04:24:52;;;;;;;2.00;1.20;;;;;;;8.94;68.38;94765.03;5053009;28;20228;-78
2021/12/24 04:27:19;;;;;;;1.30;1.20;;;;;;;8.90;68.45;94766.38;5068897;28;20308;-78
2021/12/24 04:30:03;;;;;;;1.43;1.10;;;;;;;8.93;68.27;94754.94;5055114;28;20201;-78
2021/12/24 04:32:46;;;;;;;1.27;1.17;;;;;;;8.94;68.22;94759.88;5073598;28;20232;-78
2021/12/24 04:35:30;;;;;;;1.73;1.30;;;;;;;8.90;68.75;94765.56;5073015;28;20213;-79
2021/12/24 04:38:24;;;;;;;1.43;1.10;;;;;;;8.89;67.92;94764.78;5074400;28;20228;-79
2021/12/24 04:51:50;;;;;;;1.23;1.03;;;;;;;8.84;64.58;94769.69;5074623;28;20211;-77
2021/12/24 05:02:41;;;;;;;0.97;0.97;;;;;;;8.75;62.60;94757.16;5063777;28;20207;-79
2021/12/24 05:05:19;;;;;;;1.37;1.20;;;;;;;8.75;62.82;94760.53;5061026;28;20209;-79
2021/12/24 05:08:14;;;;;;;1.03;0.93;;;;;;;8.78;62.26;94760.16;5075699;28;20220;-79
2021/12/24 05:10:41;;;;;;;0.93;0.93;;;;;;;8.79;62.04;94758.38;5076182;28;20203;-78
2021/12/24 05:13:10;;;;;;;1.57;1.20;;;;;;;8.76;61.72;94757.00;5076991;28;20208;-78
2021/12/24 05:15:39;;;;;;;1.07;1.00;;;;;;;8.76;61.69;94759.56;5071894;28;20228;-78
2021/12/24 05:18:15;;;;;;;1.30;1.20;;;;;;;8.76;61.66;94761.31;5070437;28;20250;-78
2021/12/24 05:23:30;;;;;;;1.80;1.10;;;;;;;8.77;61.21;94748.31;5077634;28;20736;-79
2021/12/24 05:26:01;;;;;;;2.93;1.17;;;;;;;8.75;61.27;94757.97;5076294;28;20228;-81
2021/12/24 05:28:27;;;;;;;1.43;1.23;;;;;;;8.78;61.62;94757.59;5077582;28;20193;-81
2021/12/24 05:30:54;;;;;;;1.50;1.10;;;;;;;8.77;61.38;94755.22;5078164;28;20566;-81
2021/12/24 05:33:21;;;;;;;1.10;1.00;;;;;;;8.77;60.93;94755.22;5078158;28;20205;-81
2021/12/24 05:35:48;;;;;;;2.10;1.20;;;;;;;8.78;61.47;94751.66;5080748;28;20224;-81
2021/12/24 05:38:16;;;;;;;2.03;1.00;;;;;;;8.79;61.31;94758.38;5098494;28;20199;-83
2021/12/24 05:40:44;;;;;;;0.93;0.90;;;;;;;8.77;61.30;94756.00;5083309;28;20216;-78
2021/12/24 05:43:11;;;;;;;1.73;0.90;;;;;;;8.77;61.07;94761.13;5077250;28;20208;-78
2021/12/24 05:45:38;;;;;;;1.20;1.10;;;;;;;8.74;61.06;94751.25;5075854;28;20217;-79
2021/12/24 05:48:06;;;;;;;1.00;1.00;;;;;;;8.77;61.29;94757.78;5075840;28;20683;-79
2021/12/24 05:50:32;;;;;;;1.20;1.10;;;;;;;8.80;61.09;94757.41;5077274;28;20200;-81
2021/12/24 05:53:00;;;;;;;1.13;1.03;;;;;;;8.77;61.38;94761.13;5075093;28;20215;-78
2021/12/24 05:55:26;;;;;;;1.30;1.20;;;;;;;8.80;61.29;94758.22;5063312;28;20349;-81
2021/12/24 05:57:53;;;;;;;1.53;1.10;;;;;;;8.81;61.42;94764.94;5075286;28;20233;-81
2021/12/24 06:00:20;;;;;;;1.30;1.20;;;;;;;8.83;61.63;94760.41;5075801;28;20259;-81
2021/12/24 06:02:47;;;;;;;1.33;1.20;;;;;;;8.85;61.32;94765.34;5076337;28;20208;-81
2021/12/24 06:05:13;;;;;;;1.10;1.00;;;;;;;8.84;61.01;94763.78;5073075;28;20227;-81
2021/12/24 06:07:40;;;;;;;1.23;1.13;;;;;;;8.85;61.53;94767.94;5068045;28;20605;-81
2021/12/24 06:10:09;;;;;;;1.30;1.20;;;;;;;8.87;61.31;94765.94;5074172;28;20569;-81
2021/12/24 06:12:35;;;;;;;1.30;1.20;;;;;;;8.88;61.10;94770.88;5075009;28;20597;-81
2021/12/24 06:15:05;;;;;;;1.10;1.00;;;;;;;8.89;61.33;94766.56;5074567;28;20209;-81
2021/12/24 06:17:33;;;;;;;1.20;1.10;;;;;;;8.90;61.21;94768.13;5072802;28;20225;-81
2021/12/24 06:20:00;;;;;;;1.20;1.10;;;;;;;8.88;61.53;94775.22;5064352;28;20725;-81
2021/12/24 06:22:26;;;;;;;1.17;1.00;;;;;;;8.87;61.47;94768.50;5073834;28;20200;-82
2021/12/24 06:24:53;;;;;;;1.07;1.00;;;;;;;8.86;61.38;94772.84;5073402;28;20212;-81
2021/12/24 06:27:21;;;;;;;2.20;1.13;;;;;;;8.84;61.57;94782.53;5072397;28;20296;-80
2021/12/24 06:29:48;;;;;;;1.40;1.30;;;;;;;8.85;61.91;94773.81;5073727;28;20231;-81
2021/12/24 06:32:15;;;;;;;1.30;1.20;;;;;;;8.85;62.01;94778.19;5073002;28;20280;-81
2021/12/24 06:34:42;;;;;;;2.03;1.50;;;;;;;8.85;62.46;94778.19;5072963;28;20226;-81
2021/12/24 06:37:09;;;;;;;2.63;1.20;;;;;;;8.84;62.92;94779.97;5073048;28;20228;-79
2021/12/24 06:39:36;;;;;;;3.13;1.27;;;;;;;8.84;62.67;94779.16;5073600;28;20213;-81
2021/12/24 06:42:03;;;;;;;2.70;1.50;;;;;;;8.86;62.99;94779.75;5073146;28;20193;-78
2021/12/24 06:44:32;;;;;;;1.33;1.20;;;;;;;8.83;63.39;94775.81;5074316;28;20252;-80
2021/12/24 06:46:59;;;;;;;1.30;1.10;;;;;;;8.83;63.42;94768.09;5073484;28;20229;-79
2021/12/24 06:49:26;;;;;;;1.30;1.20;;;;;;;8.86;63.53;94782.31;5082405;28;20204;-80
2021/12/24 06:51:52;;;;;;;1.10;1.00;;;;;;;8.87;63.81;94776.22;5084693;28;20200;-81
2021/12/24 06:54:19;;;;;;;1.20;1.10;;;;;;;8.87;63.97;94781.34;5091153;28;20288;-81
2021/12/24 06:56:45;;;;;;;1.30;1.20;;;;;;;8.84;63.97;94782.53;5082578;28;20225;-81
2021/12/24 06:59:12;;;;;;;1.30;1.20;;;;;;;8.85;64.10;94783.31;5083118;28;20201;-80
2021/12/24 07:01:40;;;;;;;2.10;1.37;;;;;;;8.90;63.77;94791.25;5083082;28;20192;-79
2021/12/24 07:04:07;;;;;;;1.43;1.33;;;;;;;8.85;64.52;94784.09;5083852;28;20217;-76
2021/12/24 07:06:33;;;;;;;1.40;1.30;;;;;;;8.86;64.46;94782.31;5067818;28;20243;-79
2021/12/24 07:09:00;;;;;;;1.23;1.13;;;;;;;8.87;64.69;94794.19;5073568;28;20201;-80
2021/12/24 07:11:26;;;;;;;1.27;1.17;;;;;;;8.91;64.46;94780.00;5077069;28;20197;-80
2021/12/24 07:13:53;;;;;;;1.53;1.40;;;;;;;8.88;64.58;94786.28;5078416;28;20193;-79
2021/12/24 07:16:20;;;;;;;1.40;1.30;;;;;;;8.87;65.27;94778.78;5076487;28;20217;-81
2021/12/24 07:18:48;;;;;;;2.47;1.20;;;;;;;8.89;64.83;94790.44;5077983;28;20185;-79
2021/12/24 07:21:15;;;;;;;1.40;1.17;;;;;;;8.89;65.25;94793.00;5075057;28;20793;-80
2021/12/24 07:23:41;;;;;;;1.70;1.30;;;;;;;8.92;65.21;94795.22;5075795;28;20219;-80
2021/12/24 07:26:07;;;;;;;1.37;1.27;;;;;;;8.85;65.61;94785.91;5074434;28;20224;-80
2021/12/24 07:28:34;;;;;;;1.60;1.40;;;;;;;8.85;65.75;94791.78;5076057;28;20213;-78
2021/12/24 07:31:01;;;;;;;1.40;1.30;;;;;;;8.90;66.08;94784.34;5074562;28;20200;-79
2021/12/24 07:33:27;;;;;;;1.30;1.20;;;;;;;8.92;66.16;94779.81;5074168;28;20193;-78
2021/12/24 07:35:55;;;;;;;1.43;1.33;;;;;;;8.95;65.69;94782.00;5080254;28;20583;-79
2021/12/24 07:38:21;;;;;;;1.70;1.33;;;;;;;8.94;66.33;94782.19;5077564;28;20197;-80
2021/12/24 07:40:51;;;;;;;1.50;1.40;;;;;;;8.92;66.46;94787.50;5073649;28;20217;-80
2021/12/24 07:43:18;;;;;;;1.50;1.40;;;;;;;8.95;66.44;94789.72;5073351;28;20203;-80
2021/12/24 07:45:45;;;;;;;1.43;1.30;;;;;;;8.94;66.77;94785.56;5067581;28;20223;-80
2021/12/24 07:48:13;;;;;;;2.40;1.40;;;;;;;8.94;66.84;94788.13;5073253;28;20197;-80
2021/12/24 07:53:27;;;;;;;1.20;1.10;;;;;;;8.98;66.84;94797.06;5072365;28;20283;-79
2021/12/24 07:55:56;;;;;;;1.50;1.40;;;;;;;8.98;67.54;94793.69;5071519;28;20234;-80
2021/12/24 07:58:23;;;;;;;1.27;1.17;;;;;;;8.96;67.77;94796.44;5071714;28;20207;-79
2021/12/24 08:00:50;;;;;;;1.60;1.50;;;;;;;8.91;68.72;94801.31;5070925;28;20223;-79
2021/12/24 08:03:17;;;;;;;1.70;1.50;;;;;;;8.90;69.16;94798.94;5071260;28;20205;-79
2021/12/24 08:05:46;;;;;;;1.40;1.30;;;;;;;8.93;68.89;94804.50;5069976;28;20711;-80
2021/12/24 08:08:13;;;;;;;2.63;1.43;;;;;;;8.98;69.03;94797.06;5070695;28;20207;-80
2021/12/24 08:10:42;;;;;;;1.53;1.43;;;;;;;8.98;69.19;94791.91;5071754;28;20241;-80
2021/12/24 08:13:09;;;;;;;1.73;1.40;;;;;;;8.98;69.79;94804.75;5071531;28;20196;-80
2021/12/24 08:15:35;;;;;;;2.57;1.40;;;;;;;8.97;70.38;94795.47;5073338;28;20216;-79
2021/12/24 08:18:02;;;;;;;1.50;1.40;;;;;;;8.93;71.37;94809.63;5075100;28;20576;-79
2021/12/24 08:20:28;;;;;;;1.53;1.40;;;;;;;8.94;72.04;94795.03;5075825;28;20208;-80
2021/12/24 08:22:56;;;;;;;1.50;1.40;;;;;;;8.94;72.48;94803.53;5075114;28;20608;-79
2021/12/24 08:25:24;;;;;;;1.57;1.47;;;;;;;8.94;72.32;94805.31;5075532;28;20212;-79
2021/12/24 08:27:52;;;;;;;1.70;1.40;;;;;;;8.91;72.98;94801.31;5070391;28;20336;-80
2021/12/24 08:30:19;;;;;;;1.50;1.30;;;;;;;8.88;73.00;94799.13;5064773;28;20243;-81
2021/12/24 08:32:46;;;;;;;3.00;1.63;;;;;;;8.85;72.91;94796.16;5074942;28;20694;-81
2021/12/24 08:35:16;;;;;;;1.50;1.30;;;;;;;8.90;72.56;94794.59;5069342;28;20303;-80
2021/12/24 08:37:43;;;;;;;1.30;1.20;;;;;;;8.87;73.09;94799.31;5072105;28;20308;-80
2021/12/24 08:40:11;;;;;;;1.57;1.27;;;;;;;8.87;72.51;94799.31;5073446;28;20217;-80
2021/12/24 08:42:38;;;;;;;2.10;1.47;;;;;;;8.93;72.29;94806.28;5073848;28;20192;-80
2021/12/24 08:45:08;;;;;;;1.50;1.40;;;;;;;8.82;72.55;94805.03;5074712;28;20216;-79
2021/12/24 08:47:34;;;;;;;1.40;1.30;;;;;;;8.88;72.39;94816.31;5074102;28;20216;-80
2021/12/24 08:50:01;;;;;;;1.63;1.30;;;;;;;8.86;72.52;94808.00;5074127;28;20553;-79
2021/12/24 08:52:27;;;;;;;1.43;1.33;;;;;;;8.90;72.46;94804.06;5069015;28;20687;-80
2021/12/24 08:54:54;;;;;;;3.30;1.50;;;;;;;8.86;72.60;94806.22;5074374;28;20237;-78
2021/12/24 08:57:20;;;;;;;1.50;1.27;;;;;;;8.88;72.83;94803.47;5073409;28;20260;-79
2021/12/24 08:59:47;;;;;;;1.43;1.33;;;;;;;8.84;73.23;94802.28;5074409;28;20200;-79
2021/12/24 09:02:15;;;;;;;1.87;1.30;;;;;;;8.79;73.50;94805.38;5074117;28;20201;-78
2021/12/24 09:04:41;;;;;;;2.37;1.47;;;;;;;8.85;73.25;94814.13;5074269;28;20254;-77
2021/12/24 09:07:08;;;;;;;2.03;1.50;;;;;;;8.87;73.05;94805.25;5074176;28;20229;-79
2021/12/24 09:09:34;;;;;;;1.60;1.50;;;;;;;8.92;73.82;94804.69;5073386;28;20197;-79
2021/12/24 09:12:01;;;;;;;1.30;1.20;;;;;;;8.93;73.31;94801.16;5073090;28;20196;-77
2021/12/24 09:14:28;;;;;;;1.67;1.50;;;;;;;8.94;73.53;94807.88;5072922;28;20584;-78
2021/12/24 09:16:54;;;;;;;2.20;1.40;;;;;;;8.93;73.73;94806.28;5073541;28;20232;-78
2021/12/24 09:19:26;;;;;;;1.23;1.13;;;;;;;8.88;74.56;94811.97;5065987;28;20205;-79
2021/12/24 09:21:55;;;;;;;3.03;1.30;;;;;;;8.86;75.05;94808.00;5071282;28;20224;-79
2021/12/24 09:24:24;;;;;;;1.40;1.20;;;;;;;8.83;75.55;94814.31;5067233;28;20747;-78
2021/12/24 09:26:54;;;;;;;1.80;1.40;;;;;;;8.77;75.74;94817.59;5060888;28;20221;-79
2021/12/24 09:29:20;;;;;;;1.50;1.40;;;;;;;8.82;75.83;94819.63;5073187;28;20912;-80
2021/12/24 09:31:47;;;;;;;1.40;1.30;;;;;;;8.79;76.49;94822.56;5074610;28;20205;-79
2021/12/24 09:34:14;;;;;;;1.97;1.40;;;;;;;8.70;76.37;94816.72;5074296;28;20231;-79
2021/12/24 09:36:42;;;;;;;1.40;1.30;;;;;;;8.68;78.43;94815.31;5073095;28;20777;-79
2021/12/24 09:39:09;;;;;;;1.67;1.50;;;;;;;8.62;79.26;94814.31;5074134;28;20201;-79
2021/12/24 09:41:35;;;;;;;2.53;1.30;;;;;;;8.57;80.04;94808.94;5072346;28;20707;-79
2021/12/24 09:44:03;;;;;;;2.40;1.43;;;;;;;8.52;81.03;94806.91;5073522;28;20225;-80
2021/12/24 09:46:31;;;;;;;1.40;1.30;;;;;;;8.49;82.14;94814.97;5069095;28;20252;-80
2021/12/24 09:48:58;;;;;;;1.40;1.30;;;;;;;8.52;82.06;94796.63;5071664;28;20201;-80
2021/12/24 09:51:26;;;;;;;1.50;1.40;;;;;;;8.54;83.52;94804.94;5066252;28;20193;-80
2021/12/24 09:53:56;;;;;;;1.97;1.50;;;;;;;8.49;84.15;94799.56;5072384;28;20586;-80
2021/12/24 09:56:23;;;;;;;1.70;1.43;;;;;;;8.49;84.52;94803.91;5066596;28;20779;-80
2021/12/24 09:58:49;;;;;;;4.47;1.40;;;;;;;8.47;85.25;94804.09;5070400;28;20208;-80
2021/12/24 10:01:29;;;;;;;2.63;1.60;;;;;;;8.47;86.04;94801.50;5070231;28;20220;-80
2021/12/24 10:04:05;;;;;;;2.03;1.40;;;;;;;8.50;85.67;94806.28;5070192;28;20228;-79
2021/12/24 10:06:32;;;;;;;1.30;1.20;;;;;;;8.46;86.51;94804.28;5069781;28;20686;-80
2021/12/24 10:09:12;;;;;;;1.60;1.50;;;;;;;8.41;87.20;94798.91;5071278;28;20220;-80
2021/12/24 10:11:47;;;;;;;1.73;1.30;;;;;;;8.30;88.09;94795.78;5053683;28;20209;-79
2021/12/24 10:14:14;;;;;;;3.03;1.57;;;;;;;8.33;88.40;94794.66;5071313;28;20220;-80
2021/12/24 10:16:42;;;;;;;1.60;1.50;;;;;;;8.38;89.15;94783.88;5071571;28;20197;-79
2021/12/24 10:19:09;;;;;;;2.10;1.80;;;;;;;8.36;89.68;94791.75;5073154;28;20200;-80
2021/12/24 10:21:36;;;;;;;1.67;1.57;;;;;;;8.35;90.09;94784.22;5084020;28;20288;-80
2021/12/24 10:24:04;;;;;;;1.77;1.43;;;;;;;8.35;91.13;94779.09;5073971;28;20221;-80
2021/12/24 10:26:34;;;;;;;2.87;1.70;;;;;;;8.30;93.17;94769.34;5072819;28;20208;-80
2021/12/24 10:29:05;;;;;;;1.50;1.40;;;;;;;8.29;93.21;94780.59;5072710;28;20223;-80
2021/12/24 10:31:34;;;;;;;2.70;1.50;;;;;;;8.29;94.04;94775.47;5069148;28;20199;-80
2021/12/24 10:34:16;;;;;;;3.20;1.67;;;;;;;8.34;94.55;94772.38;5072621;28;20213;-80
2021/12/24 10:36:59;;;;;;;1.87;1.50;;;;;;;8.33;94.41;94776.72;5071642;28;20192;-80
2021/12/24 10:39:28;;;;;;;2.33;1.53;;;;;;;8.37;94.71;94767.69;5071616;28;20270;-80
2021/12/24 10:41:57;;;;;;;1.63;1.53;;;;;;;8.31;94.52;94773.50;5071049;28;20217;-79
2021/12/24 10:44:26;;;;;;;2.10;1.60;;;;;;;8.37;94.30;94772.81;5071316;28;20243;-79
2021/12/24 10:47:06;;;;;;;3.43;1.73;;;;;;;8.42;93.87;94779.97;5071635;28;20594;-79
2021/12/24 10:52:44;;;;;;;1.57;1.37;;;;;;;8.37;94.43;94777.16;5088915;28;20207;-80
2021/12/24 10:55:13;;;;;;;2.73;1.43;;;;;;;8.28;94.84;94764.41;5073960;28;20225;-80
2021/12/24 10:57:43;;;;;;;2.13;1.37;;;;;;;8.25;95.29;94764.78;5071790;28;20232;-80
2021/12/24 11:00:17;;;;;;;2.97;1.40;;;;;;;8.26;95.83;94761.25;5063378;28;20200;-79
2021/12/24 11:02:44;;;;;;;1.80;1.57;;;;;;;8.28;96.52;94766.19;5072055;28;20622;-80
2021/12/24 11:05:25;;;;;;;1.60;1.50;;;;;;;8.33;95.90;94766.47;5072352;28;20221;-80
2021/12/24 11:07:52;;;;;;;1.50;1.40;;;;;;;8.30;96.28;94754.75;5053534;28;20229;-79
2021/12/24 11:10:20;;;;;;;1.90;1.70;;;;;;;8.29;96.59;94755.75;5063555;28;20580;-78
2021/12/24 11:12:50;;;;;;;1.83;1.73;;;;;;;8.31;96.91;94740.97;5072664;28;20208;-80
2021/12/24 11:15:26;;;;;;;1.73;1.63;;;;;;;8.31;96.61;94740.97;5071531;28;20221;-78
2021/12/24 11:17:55;;;;;;;2.00;1.50;;;;;;;8.35;96.32;94728.59;5072593;28;20236;-80
2021/12/24 11:20:22;;;;;;;1.60;1.50;;;;;;;8.33;96.97;94725.44;5072245;28;20197;-80
2021/12/24 11:23:02;;;;;;;1.83;1.50;;;;;;;8.22;97.21;94716.44;5072051;28;20217;-81
2021/12/24 11:25:31;;;;;;;1.70;1.60;;;;;;;8.22;97.57;94729.25;5070317;28;20231;-80
2021/12/24 11:27:59;;;;;;;2.30;1.47;;;;;;;8.18;97.81;94720.34;5071396;28;20247;-80
2021/12/24 11:30:28;;;;;;;1.50;1.40;;;;;;;8.14;98.69;94728.56;5071248;28;20196;-80
2021/12/24 11:32:55;;;;;;;1.53;1.43;;;;;;;8.16;98.47;94714.59;5069792;28;20197;-78
2021/12/24 11:35:22;;;;;;;2.07;1.80;;;;;;;8.27;98.29;94721.03;5072438;28;20224;-79
2021/12/24 11:37:49;;;;;;;3.13;2.00;;;;;;;8.20;98.69;94720.16;5092074;28;20726;-79
2021/12/24 11:40:18;;;;;;;1.50;1.40;;;;;;;8.17;98.62;94713.63;5083377;28;20219;-80
2021/12/24 11:42:50;;;;;;;1.70;1.60;;;;;;;8.15;98.79;94727.59;5072076;28;20220;-80
2021/12/24 11:45:21;;;;;;;1.60;1.50;;;;;;;8.21;97.49;94707.16;5067487;28;20595;-80
2021/12/24 11:47:48;;;;;;;1.50;1.40;;;;;;;8.21;97.56;94714.84;5071251;28;20232;-80
2021/12/24 11:50:16;;;;;;;1.50;1.40;;;;;;;8.25;97.00;94718.63;5072240;28;20578;-80
2021/12/24 11:52:42;;;;;;;1.90;1.70;;;;;;;8.29;97.56;94717.28;5071273;28;20203;-78
2021/12/24 11:55:11;;;;;;;1.70;1.47;;;;;;;8.31;97.44;94717.88;5072274;28;20229;-80
2021/12/24 11:57:54;;;;;;;2.30;1.57;;;;;;;8.38;97.11;94724.88;5071411;28;20227;-80
2021/12/24 12:00:31;;;;;;;1.77;1.60;;;;;;;8.40;96.84;94710.91;5069534;28;20203;-80
2021/12/24 12:02:58;;;;;;;2.10;1.67;;;;;;;8.45;96.05;94711.16;5074021;28;20594;-80
2021/12/24 12:05:32;;;;;;;1.77;1.57;;;;;;;8.41;96.71;94709.94;5072106;28;20227;-79
2021/12/24 12:08:32;;;;;;;1.90;1.73;;;;;;;8.42;97.27;94719.22;5053844;28;20658;-80
2021/12/24 12:11:01;;;;;;;1.70;1.50;;;;;;;8.40;97.08;94710.09;5072398;28;20196;-79
2021/12/24 12:13:50;;;;;;;1.73;1.57;;;;;;;8.34;97.41;94698.00;5073692;28;20277;-79
2021/12/24 12:16:20;;;;;;;2.23;1.70;;;;;;;8.37;97.30;94708.69;5063725;28;20192;-81
2021/12/24 12:18:59;;;;;;;2.87;1.67;;;;;;;8.42;97.06;94703.03;5056102;28;20221;-80
2021/12/24 12:21:36;;;;;;;3.50;1.67;;;;;;;8.48;96.92;94705.63;5059337;28;20278;-80
2021/12/24 12:26:48;;;;;;;1.63;1.53;;;;;;;8.46;96.90;94702.47;5046051;28;20200;-78
2021/12/24 12:29:25;;;;;;;2.97;1.70;;;;;;;8.43;96.83;94702.84;5073698;28;20204;-79
2021/12/24 12:31:57;;;;;;;1.50;1.40;;;;;;;8.39;97.54;94698.25;5072312;28;20195;-79
2021/12/24 12:34:59;;;;;;;2.90;1.60;;;;;;;8.48;96.89;94687.66;5072151;28;20236;-79
2021/12/24 12:37:28;;;;;;;1.57;1.23;;;;;;;8.53;96.70;94694.81;5062634;28;20235;-79
2021/12/24 12:39:57;;;;;;;3.00;1.30;;;;;;;8.53;96.14;94695.63;5072423;28;20201;-79
2021/12/24 12:42:44;;;;;;;1.60;1.43;;;;;;;8.51;96.48;94692.44;5070391;28;20221;-80
2021/12/24 12:45:11;;;;;;;1.40;1.30;;;;;;;8.46;96.54;94681.97;5070987;28;20586;-79
2021/12/24 12:47:51;;;;;;;2.33;1.60;;;;;;;8.54;96.08;94692.06;5070289;28;20225;-79
2021/12/24 12:50:19;;;;;;;1.50;1.40;;;;;;;8.57;96.59;94690.91;5070798;28;20239;-81
2021/12/24 12:52:46;;;;;;;2.27;1.57;;;;;;;8.64;95.99;94686.63;5069683;28;20190;-81
2021/12/24 12:55:29;;;;;;;2.13;1.30;;;;;;;8.57;94.72;94688.34;5068865;28;20777;-79
2021/12/24 12:58:20;;;;;;;1.53;1.43;;;;;;;8.56;95.45;94684.97;5063219;28;20239;-79
2021/12/24 13:01:03;;;;;;;1.30;1.20;;;;;;;8.55;95.59;94682.59;5075316;28;20193;-77
2021/12/24 13:03:31;;;;;;;2.60;1.30;;;;;;;8.55;95.37;94680.84;5075370;28;20207;-79